Time;durP1;ratioP1;P1;durP2;ratioP2;P2;SDS_P1;SDS_P2;PMS_P1;PMS_P2;Temp;Humidity;BMP_temperature;BMP_pressure;BME280_temperature;BME280_humidity;BME280_pressure;Samples;Min_cycle;Max_cycle;Signal;HPM_P1;HPM_P2
2023/03/05 00:01:23;;;;;;;4.80;2.20;;;2.70;99.90;;;;;;5053564;28;20577;-59
2023/03/05 00:03:51;;;;;;;8.55;2.65;;;2.70;99.90;;;;;;5053674;28;20186;-63
2023/03/05 00:06:20;;;;;;;12.50;2.78;;;2.70;99.90;;;;;;5053218;28;20214;-62
2023/03/05 00:08:47;;;;;;;5.97;2.58;;;2.70;99.90;;;;;;5053011;28;20209;-63
2023/03/05 00:11:14;;;;;;;7.93;2.67;;;2.70;99.90;;;;;;5052868;28;20292;-62
2023/03/05 00:13:41;;;;;;;7.13;2.25;;;2.70;99.90;;;;;;5053100;28;20213;-62
2023/03/05 00:16:10;;;;;;;5.32;2.20;;;2.70;99.90;;;;;;5052688;28;20217;-62
2023/03/05 00:18:38;;;;;;;4.53;2.78;;;2.70;99.90;;;;;;5053226;28;20213;-62
2023/03/05 00:21:05;;;;;;;2.83;1.95;;;2.60;99.90;;;;;;5053041;28;20201;-62
2023/03/05 00:23:33;;;;;;;7.55;2.40;;;2.70;99.90;;;;;;5053183;28;20210;-63
2023/03/05 00:26:02;;;;;;;4.25;2.17;;;2.60;99.90;;;;;;5053264;28;20198;-62
2023/03/05 00:28:29;;;;;;;8.23;2.72;;;2.60;99.90;;;;;;5056936;28;20190;-62
2023/03/05 00:30:59;;;;;;;5.35;2.40;;;2.60;99.90;;;;;;5057045;28;20201;-62
2023/03/05 00:33:26;;;;;;;7.28;2.20;;;2.60;99.90;;;;;;5057061;28;20193;-62
2023/03/05 00:35:53;;;;;;;4.38;2.20;;;2.60;99.90;;;;;;5056760;28;20248;-61
2023/03/05 00:38:20;;;;;;;4.15;2.08;;;2.60;99.90;;;;;;5056521;28;20251;-62
2023/03/05 00:40:50;;;;;;;5.72;1.90;;;2.60;99.90;;;;;;5056799;28;20275;-62
2023/03/05 00:43:17;;;;;;;6.47;1.60;;;2.60;99.90;;;;;;5056858;28;20202;-62
2023/03/05 00:45:44;;;;;;;8.20;2.05;;;2.60;99.90;;;;;;5056447;28;20263;-61
2023/03/05 00:48:11;;;;;;;12.52;3.58;;;2.60;99.90;;;;;;5056600;28;20234;-63
2023/03/05 00:50:37;;;;;;;5.32;1.30;;;2.70;99.90;;;;;;5057099;28;20203;-62
2023/03/05 00:53:04;;;;;;;4.57;2.10;;;2.70;99.90;;;;;;5057492;28;20208;-62
2023/03/05 00:55:31;;;;;;;8.38;2.60;;;2.70;99.90;;;;;;5056775;28;20227;-61
2023/03/05 00:57:59;;;;;;;6.65;1.90;;;2.70;99.90;;;;;;5057282;28;20741;-62
2023/03/05 01:00:26;;;;;;;4.50;1.85;;;2.70;99.90;;;;;;5056805;28;20675;-63
2023/03/05 01:02:52;;;;;;;5.55;2.58;;;2.70;99.90;;;;;;5056702;28;20212;-62
2023/03/05 01:05:19;;;;;;;7.50;2.08;;;2.60;99.90;;;;;;5056374;28;20201;-62
2023/03/05 01:07:46;;;;;;;8.88;2.67;;;2.70;99.90;;;;;;5056650;28;20229;-62
2023/03/05 01:10:13;;;;;;;6.82;2.15;;;2.70;99.90;;;;;;5056118;28;20208;-62
2023/03/05 01:12:40;;;;;;;10.30;2.70;;;2.70;99.90;;;;;;5056022;28;20202;-62
2023/03/05 01:15:09;;;;;;;7.28;2.70;;;2.60;99.90;;;;;;5055981;28;20201;-62
2023/03/05 01:17:36;;;;;;;9.77;2.58;;;2.70;99.90;;;;;;5055888;28;20617;-62
2023/03/05 01:20:03;;;;;;;3.88;2.33;;;2.70;99.90;;;;;;5056158;28;20205;-62
2023/03/05 01:22:30;;;;;;;8.65;1.85;;;2.60;99.90;;;;;;5057033;28;20201;-60
2023/03/05 01:24:57;;;;;;;11.23;3.13;;;2.60;99.90;;;;;;5055930;28;20697;-61
2023/03/05 01:27:24;;;;;;;8.75;3.35;;;2.70;99.90;;;;;;5055905;28;20742;-62
2023/03/05 01:29:51;;;;;;;17.02;2.85;;;2.60;99.90;;;;;;5056091;28;20677;-63
2023/03/05 01:32:19;;;;;;;9.88;2.80;;;2.60;99.90;;;;;;5056888;28;20206;-62
2023/03/05 01:34:45;;;;;;;8.63;2.75;;;2.60;99.90;;;;;;5055722;28;20671;-62
2023/03/05 01:37:12;;;;;;;7.88;2.80;;;2.60;99.90;;;;;;5055674;28;20225;-61
2023/03/05 01:39:39;;;;;;;5.22;2.40;;;2.70;99.90;;;;;;5055023;28;20201;-61
2023/03/05 01:42:06;;;;;;;10.07;2.80;;;2.60;99.90;;;;;;5055650;28;20208;-62
2023/03/05 01:44:34;;;;;;;8.48;2.97;;;2.70;99.90;;;;;;5055614;28;20210;-61
2023/03/05 01:47:01;;;;;;;7.93;2.78;;;2.70;99.90;;;;;;5055421;28;20222;-61
2023/03/05 01:49:32;;;;;;;4.10;1.77;;;2.70;99.90;;;;;;5055627;28;20202;-61
2023/03/05 01:52:03;;;;;;;6.47;2.50;;;2.70;99.90;;;;;;5055664;28;20190;-61
2023/03/05 01:54:34;;;;;;;6.30;2.08;;;2.70;99.90;;;;;;5055590;28;20193;-61
2023/03/05 01:57:06;;;;;;;6.00;3.05;;;2.70;99.90;;;;;;5055142;28;20707;-61
2023/03/05 01:59:34;;;;;;;6.40;2.20;;;2.70;99.90;;;;;;5055168;28;20197;-61
2023/03/05 02:02:02;;;;;;;5.45;1.83;;;2.70;99.90;;;;;;5055338;28;20686;-60
2023/03/05 02:04:37;;;;;;;6.22;2.38;;;2.70;99.90;;;;;;5055662;28;20213;-61
2023/03/05 02:07:05;;;;;;;6.75;1.63;;;2.70;99.90;;;;;;5055134;28;20217;-60
2023/03/05 02:09:31;;;;;;;7.13;2.70;;;2.70;99.90;;;;;;5055180;28;20208;-60
2023/03/05 02:11:59;;;;;;;5.70;1.95;;;2.70;99.90;;;;;;5054842;28;20206;-60
2023/03/05 02:14:26;;;;;;;7.35;1.90;;;2.70;99.90;;;;;;5055002;28;20205;-60
2023/03/05 02:16:53;;;;;;;12.82;2.42;;;2.70;99.90;;;;;;5055379;28;20230;-61
2023/03/05 02:19:20;;;;;;;3.20;2.10;;;2.70;99.90;;;;;;5054713;28;20206;-62
2023/03/05 02:21:49;;;;;;;7.78;2.72;;;2.70;99.90;;;;;;5055568;28;20213;-61
2023/03/05 02:24:18;;;;;;;9.80;3.15;;;2.70;99.90;;;;;;5056029;28;20206;-62
2023/03/05 02:26:47;;;;;;;3.13;1.67;;;2.70;99.90;;;;;;5055716;28;20232;-61
2023/03/05 02:29:18;;;;;;;9.85;2.45;;;2.70;99.90;;;;;;5055311;28;20214;-61
2023/03/05 02:31:45;;;;;;;4.90;1.85;;;2.70;99.90;;;;;;5055558;28;20194;-61
2023/03/05 02:34:12;;;;;;;5.38;1.83;;;2.70;99.90;;;;;;5055320;28;20558;-61
2023/03/05 02:36:39;;;;;;;5.18;2.33;;;2.80;99.90;;;;;;5055467;28;20228;-61
2023/03/05 02:39:08;;;;;;;6.05;2.20;;;2.80;99.90;;;;;;5055177;28;20209;-61
2023/03/05 02:41:35;;;;;;;13.18;3.28;;;2.80;99.90;;;;;;5055627;28;20209;-61
2023/03/05 02:44:02;;;;;;;4.80;2.65;;;2.80;99.90;;;;;;5055875;28;20308;-61
2023/03/05 02:46:28;;;;;;;12.88;2.90;;;2.80;99.90;;;;;;5055111;28;20229;-61
2023/03/05 02:48:55;;;;;;;10.63;2.85;;;2.80;99.90;;;;;;5054864;28;20205;-61
2023/03/05 02:51:22;;;;;;;4.35;2.20;;;2.80;99.90;;;;;;5054649;28;20198;-61
2023/03/05 02:53:49;;;;;;;6.30;2.50;;;2.80;99.90;;;;;;5054445;28;20212;-61
2023/03/05 02:56:17;;;;;;;6.28;2.03;;;2.80;99.90;;;;;;5054201;28;20234;-61
2023/03/05 02:58:44;;;;;;;7.38;2.45;;;2.80;99.90;;;;;;5054307;28;20210;-61
2023/03/05 03:01:10;;;;;;;6.13;2.47;;;2.80;99.90;;;;;;5053840;28;20675;-61
2023/03/05 03:03:37;;;;;;;10.27;2.90;;;2.70;99.90;;;;;;5053977;28;20651;-61
2023/03/05 03:06:05;;;;;;;10.80;2.88;;;2.70;99.90;;;;;;5053914;28;20205;-61
2023/03/05 03:08:32;;;;;;;6.25;2.28;;;2.60;99.90;;;;;;5053977;28;20280;-61
2023/03/05 03:11:04;;;;;;;4.63;3.40;;;2.60;99.90;;;;;;5053784;28;20202;-61
2023/03/05 03:13:33;;;;;;;9.27;3.60;;;2.60;99.90;;;;;;5053921;28;20565;-61
2023/03/05 03:16:03;;;;;;;6.50;2.35;;;2.50;99.90;;;;;;5053865;28;20205;-61
2023/03/05 03:18:30;;;;;;;7.40;2.90;;;2.50;99.90;;;;;;5054371;28;20197;-61
2023/03/05 03:20:57;;;;;;;6.22;2.80;;;2.50;99.90;;;;;;5053770;28;20582;-60
2023/03/05 03:23:24;;;;;;;5.95;2.10;;;2.50;99.90;;;;;;5053725;28;20205;-61
2023/03/05 03:25:51;;;;;;;6.20;2.72;;;2.50;99.90;;;;;;5053944;28;20585;-61
2023/03/05 03:28:18;;;;;;;5.82;2.33;;;2.60;99.90;;;;;;5053219;28;20230;-61
2023/03/05 03:30:46;;;;;;;5.45;1.92;;;2.60;99.90;;;;;;5053645;28;20209;-61
2023/03/05 03:33:13;;;;;;;6.32;2.60;;;2.60;99.90;;;;;;5054446;28;20620;-62
2023/03/05 03:35:40;;;;;;;3.65;2.17;;;2.60;99.90;;;;;;5053201;28;20216;-61
2023/03/05 03:38:06;;;;;;;6.60;2.88;;;2.50;99.90;;;;;;5053308;28;20225;-61
2023/03/05 03:40:34;;;;;;;3.70;2.20;;;2.50;99.90;;;;;;5054056;28;20202;-61
2023/03/05 03:43:01;;;;;;;5.05;2.30;;;2.50;99.90;;;;;;5053490;28;20209;-60
2023/03/05 03:45:28;;;;;;;4.65;2.17;;;2.50;99.90;;;;;;5053581;28;20205;-61
2023/03/05 03:47:56;;;;;;;4.53;2.22;;;2.50;99.90;;;;;;5053160;28;20228;-62
2023/03/05 03:50:23;;;;;;;3.60;2.00;;;2.40;99.90;;;;;;5053203;28;20376;-61
2023/03/05 03:52:50;;;;;;;6.80;2.60;;;2.40;99.90;;;;;;5053196;28;20299;-61
2023/03/05 03:55:17;;;;;;;3.45;2.60;;;2.40;99.90;;;;;;5053599;28;20206;-61
2023/03/05 03:57:44;;;;;;;3.03;2.58;;;2.40;99.90;;;;;;5053188;28;20233;-61
2023/03/05 04:00:12;;;;;;;7.30;2.97;;;2.30;99.90;;;;;;5052676;28;20204;-60
2023/03/05 04:02:39;;;;;;;2.38;2.17;;;2.30;99.90;;;;;;5052430;28;20610;-61
2023/03/05 04:05:09;;;;;;;4.07;2.20;;;2.40;99.90;;;;;;5053154;28;20205;-61
2023/03/05 04:07:35;;;;;;;6.43;2.40;;;2.40;99.90;;;;;;5053073;28;20220;-61
2023/03/05 04:11:18;;;;;;;5.47;2.83;;;2.40;99.90;;;;;;5091934;28;20615;-62
2023/03/05 04:13:45;;;;;;;7.38;2.88;;;2.40;99.90;;;;;;5092312;28;20204;-62
2023/03/05 04:16:12;;;;;;;4.47;2.97;;;2.50;99.90;;;;;;5092135;28;20200;-61
2023/03/05 04:18:39;;;;;;;10.38;2.85;;;2.50;99.90;;;;;;5092360;28;20211;-62
2023/03/05 04:21:06;;;;;;;9.05;2.70;;;2.50;99.90;;;;;;5092009;28;20197;-62
2023/03/05 04:23:33;;;;;;;3.85;2.25;;;2.50;99.90;;;;;;5092994;28;20295;-63
2023/03/05 04:25:59;;;;;;;3.17;1.77;;;2.50;99.90;;;;;;5092256;28;20582;-63
2023/03/05 04:28:28;;;;;;;8.52;3.30;;;2.50;99.90;;;;;;5093201;28;20197;-62
2023/03/05 04:30:54;;;;;;;4.13;3.28;;;2.50;99.90;;;;;;5093853;28;20212;-64
2023/03/05 04:33:21;;;;;;;5.93;2.42;;;2.60;99.90;;;;;;5093489;28;20205;-64
2023/03/05 04:35:48;;;;;;;5.35;2.55;;;2.60;99.90;;;;;;5093938;28;20291;-64
2023/03/05 04:38:15;;;;;;;5.03;3.10;;;2.60;99.90;;;;;;5093543;28;20334;-63
2023/03/05 04:40:42;;;;;;;9.23;2.90;;;2.60;99.90;;;;;;5093964;28;20203;-64
2023/03/05 04:43:09;;;;;;;9.07;2.75;;;2.60;99.90;;;;;;5092929;28;20508;-64
2023/03/05 04:45:39;;;;;;;10.27;3.42;;;2.60;99.90;;;;;;5090866;28;20663;-62
2023/03/05 04:48:06;;;;;;;4.75;2.53;;;2.60;99.90;;;;;;5091004;28;20231;-63
2023/03/05 04:50:33;;;;;;;7.50;2.70;;;2.60;99.90;;;;;;5090737;28;20585;-63
2023/03/05 04:53:00;;;;;;;4.50;2.35;;;2.60;99.90;;;;;;5090240;28;20207;-64
2023/03/05 04:55:27;;;;;;;5.55;2.70;;;2.60;99.90;;;;;;5090286;28;20207;-64
2023/03/05 04:57:54;;;;;;;5.65;3.10;;;2.60;99.90;;;;;;5089925;28;20220;-63
2023/03/05 05:00:21;;;;;;;4.40;3.10;;;2.60;99.90;;;;;;5089826;28;20235;-63
2023/03/05 05:02:51;;;;;;;10.40;2.88;;;2.60;99.90;;;;;;5089557;28;20208;-63
2023/03/05 05:05:20;;;;;;;7.13;3.00;;;2.60;99.90;;;;;;5089426;28;20739;-64
2023/03/05 05:07:46;;;;;;;3.50;2.40;;;2.60;99.90;;;;;;5089422;28;20216;-63
2023/03/05 05:10:15;;;;;;;5.95;2.80;;;2.60;99.90;;;;;;5089506;28;20627;-64
2023/03/05 05:12:42;;;;;;;6.93;3.03;;;2.60;99.90;;;;;;5089422;28;20203;-64
2023/03/05 05:15:11;;;;;;;4.05;2.85;;;2.60;99.90;;;;;;5089572;28;20622;-64
2023/03/05 05:17:38;;;;;;;5.28;2.78;;;2.60;99.90;;;;;;5089404;28;20221;-64
2023/03/05 05:20:09;;;;;;;4.35;2.95;;;2.60;99.90;;;;;;5089068;28;20662;-64
2023/03/05 05:22:36;;;;;;;6.53;2.35;;;2.60;99.90;;;;;;5076220;28;20185;-63
2023/03/05 05:25:04;;;;;;;4.70;3.20;;;2.60;99.90;;;;;;5076217;28;20209;-63
2023/03/05 05:27:31;;;;;;;4.75;2.22;;;2.60;99.90;;;;;;5075826;28;20224;-63
2023/03/05 05:29:57;;;;;;;5.43;2.67;;;2.60;99.90;;;;;;5075930;28;20228;-64
2023/03/05 05:32:25;;;;;;;10.63;2.50;;;2.60;99.90;;;;;;5076274;28;20197;-63
2023/03/05 05:34:55;;;;;;;8.35;2.20;;;2.60;99.90;;;;;;5076116;28;20205;-64
2023/03/05 05:37:23;;;;;;;3.88;2.80;;;2.60;99.90;;;;;;5076417;28;20271;-64
2023/03/05 05:39:50;;;;;;;4.35;3.20;;;2.60;99.90;;;;;;5076211;28;20204;-63
2023/03/05 05:42:17;;;;;;;7.03;2.25;;;2.50;99.90;;;;;;5075865;28;20670;-63
2023/03/05 05:44:44;;;;;;;4.40;1.98;;;2.50;99.90;;;;;;5075827;28;20204;-63
2023/03/05 05:47:11;;;;;;;4.43;2.90;;;2.50;99.90;;;;;;5075889;28;20299;-63
2023/03/05 05:49:38;;;;;;;4.50;2.75;;;2.50;99.90;;;;;;5076051;28;20228;-64
2023/03/05 05:52:05;;;;;;;7.15;3.13;;;2.50;99.90;;;;;;5076597;28;20212;-63
2023/03/05 05:54:33;;;;;;;4.68;2.45;;;2.60;99.90;;;;;;5076902;28;20205;-63
2023/03/05 05:57:00;;;;;;;5.13;2.75;;;2.60;99.90;;;;;;5077125;28;20228;-63
2023/03/05 05:59:27;;;;;;;5.78;2.97;;;2.60;99.90;;;;;;5076755;28;20208;-63
2023/03/05 06:01:54;;;;;;;6.78;2.65;;;2.60;99.90;;;;;;5077928;28;20205;-63
2023/03/05 06:04:21;;;;;;;6.47;2.83;;;2.60;99.90;;;;;;5077452;28;20223;-63
2023/03/05 06:06:47;;;;;;;5.72;2.47;;;2.60;99.90;;;;;;5076480;28;20229;-64
2023/03/05 06:09:14;;;;;;;4.50;2.83;;;2.60;99.90;;;;;;5076624;28;20209;-63
2023/03/05 06:11:42;;;;;;;4.70;2.67;;;2.60;99.90;;;;;;5078280;28;20217;-63
2023/03/05 06:14:10;;;;;;;3.17;2.53;;;2.60;99.90;;;;;;5078665;28;20201;-64
2023/03/05 06:16:37;;;;;;;10.60;3.20;;;2.60;99.90;;;;;;5077652;28;20213;-64
2023/03/05 06:19:04;;;;;;;3.97;2.70;;;2.60;99.90;;;;;;5078085;28;20197;-64
2023/03/05 06:21:31;;;;;;;4.63;2.75;;;2.70;99.90;;;;;;5079285;28;20200;-64
2023/03/05 06:23:58;;;;;;;7.78;3.17;;;2.70;99.90;;;;;;5078551;28;20203;-64
2023/03/05 06:26:25;;;;;;;5.25;2.63;;;2.70;99.90;;;;;;5078078;28;20227;-64
2023/03/05 06:28:54;;;;;;;5.45;2.65;;;2.70;99.90;;;;;;5078787;28;20205;-64
2023/03/05 06:31:22;;;;;;;4.20;2.40;;;2.70;99.90;;;;;;5078577;28;20221;-63
2023/03/05 06:33:50;;;;;;;4.78;2.47;;;2.70;99.90;;;;;;5077839;28;20274;-63
2023/03/05 06:36:19;;;;;;;3.40;2.55;;;2.70;99.90;;;;;;5078731;28;20221;-63
2023/03/05 06:38:46;;;;;;;6.55;2.92;;;2.70;99.90;;;;;;5079750;28;20204;-64
2023/03/05 06:41:15;;;;;;;7.60;2.80;;;2.70;99.90;;;;;;5077975;28;20204;-63
2023/03/05 06:43:43;;;;;;;5.70;3.15;;;2.70;99.90;;;;;;5081314;28;20208;-63
2023/03/05 06:46:14;;;;;;;3.17;2.63;;;2.70;99.90;;;;;;5079918;28;20212;-63
2023/03/05 06:48:42;;;;;;;7.93;2.60;;;2.80;99.90;;;;;;5081985;28;20205;-64
2023/03/05 06:51:14;;;;;;;4.28;2.53;;;2.80;99.90;;;;;;5082259;28;20630;-64
2023/03/05 06:53:40;;;;;;;5.97;4.00;;;2.80;99.90;;;;;;5080686;28;20193;-63
2023/03/05 06:56:07;;;;;;;6.20;2.10;;;2.80;99.90;;;;;;5077908;28;20727;-62
2023/03/05 06:58:34;;;;;;;5.03;3.10;;;2.80;99.90;;;;;;5074312;28;20205;-63
2023/03/05 07:01:01;;;;;;;9.10;3.28;;;2.80;99.90;;;;;;5074342;28;20223;-64
2023/03/05 07:03:29;;;;;;;7.53;3.05;;;2.90;99.90;;;;;;5074175;28;20201;-64
2023/03/05 07:05:56;;;;;;;2.75;2.55;;;2.90;99.90;;;;;;5073989;28;20688;-64
2023/03/05 07:08:22;;;;;;;3.60;2.92;;;2.90;99.90;;;;;;5074506;28;20208;-63
2023/03/05 07:10:49;;;;;;;6.80;3.30;;;2.90;99.90;;;;;;5074222;28;20225;-64
2023/03/05 07:13:16;;;;;;;7.00;2.67;;;3.00;99.90;;;;;;5074465;28;20207;-62
2023/03/05 07:15:43;;;;;;;6.75;2.80;;;3.00;99.90;;;;;;5074776;28;20209;-64
2023/03/05 07:18:09;;;;;;;5.25;2.58;;;3.10;99.90;;;;;;5073705;28;20221;-63
2023/03/05 07:20:38;;;;;;;3.95;2.72;;;3.10;99.90;;;;;;5066471;28;20652;-61
2023/03/05 07:23:04;;;;;;;3.90;2.58;;;3.20;99.90;;;;;;5065581;28;20620;-63
2023/03/05 07:25:33;;;;;;;5.03;3.13;;;3.20;99.90;;;;;;5055438;28;20198;-64
2023/03/05 07:27:59;;;;;;;4.65;2.30;;;3.30;99.90;;;;;;5054897;28;20225;-64
2023/03/05 07:30:26;;;;;;;4.10;2.10;;;3.30;99.90;;;;;;5058065;28;20573;-63
2023/03/05 07:32:53;;;;;;;7.10;3.03;;;3.40;99.90;;;;;;5059263;28;20207;-64
2023/03/05 07:35:20;;;;;;;5.47;3.17;;;3.40;99.90;;;;;;5067871;28;20279;-63
2023/03/05 07:37:48;;;;;;;2.70;2.25;;;3.40;99.90;;;;;;5060150;28;20213;-63
2023/03/05 07:40:15;;;;;;;3.17;2.25;;;3.40;99.90;;;;;;5066588;28;20209;-65
2023/03/05 07:42:41;;;;;;;4.00;2.40;;;3.40;99.90;;;;;;5070329;28;20208;-66
2023/03/05 07:45:09;;;;;;;5.93;2.13;;;3.40;99.90;;;;;;5060868;28;20204;-64
2023/03/05 07:47:36;;;;;;;6.13;2.33;;;3.40;99.90;;;;;;5058995;28;20724;-64
2023/03/05 07:50:04;;;;;;;6.70;2.65;;;3.40;99.90;;;;;;5061408;28;20194;-63
2023/03/05 07:52:31;;;;;;;4.47;3.05;;;3.40;99.90;;;;;;5060393;28;20202;-64
2023/03/05 07:54:59;;;;;;;3.28;2.17;;;3.40;99.90;;;;;;5058882;28;20288;-63
2023/03/05 07:57:26;;;;;;;7.20;2.60;;;3.40;99.90;;;;;;5061437;28;20313;-63
2023/03/05 07:59:53;;;;;;;6.50;2.40;;;3.40;99.90;;;;;;5057122;28;20205;-67
2023/03/05 08:02:20;;;;;;;2.78;2.05;;;3.40;99.90;;;;;;5057683;28;20663;-66
2023/03/05 08:04:47;;;;;;;3.83;2.83;;;3.40;99.90;;;;;;5057227;28;20194;-63
2023/03/05 08:07:14;;;;;;;4.15;1.85;;;3.40;99.90;;;;;;5059590;28;20240;-63
2023/03/05 08:09:41;;;;;;;7.00;2.45;;;3.40;99.90;;;;;;5058528;28;20232;-63
2023/03/05 08:12:10;;;;;;;2.20;2.00;;;3.40;99.90;;;;;;5054905;28;20319;-62
2023/03/05 08:14:37;;;;;;;4.97;2.15;;;3.40;99.90;;;;;;5053280;28;20574;-63
2023/03/05 08:17:05;;;;;;;3.03;1.90;;;3.40;99.90;;;;;;5052150;28;20228;-63
2023/03/05 08:19:32;;;;;;;3.08;1.85;;;3.40;99.90;;;;;;5058917;28;20293;-63
2023/03/05 08:21:59;;;;;;;1.75;1.65;;;3.50;99.90;;;;;;5059294;28;20572;-64
2023/03/05 08:24:28;;;;;;;4.78;2.30;;;3.50;99.90;;;;;;5061508;28;20205;-63
2023/03/05 08:26:55;;;;;;;4.00;2.10;;;3.50;99.90;;;;;;5061337;28;20217;-63
2023/03/05 08:29:24;;;;;;;5.15;2.53;;;3.50;99.90;;;;;;5060727;28;20216;-63
2023/03/05 08:31:52;;;;;;;6.35;2.42;;;3.50;99.90;;;;;;5059191;28;20232;-63
2023/03/05 08:34:19;;;;;;;5.25;2.08;;;3.60;99.90;;;;;;5060457;28;20243;-63
2023/03/05 08:36:46;;;;;;;3.95;1.90;;;3.60;99.90;;;;;;5055732;28;20225;-63
2023/03/05 08:39:13;;;;;;;2.20;1.83;;;3.60;99.90;;;;;;5055669;28;20202;-63
2023/03/05 08:41:40;;;;;;;2.78;1.55;;;3.60;99.90;;;;;;5055848;28;20580;-64
2023/03/05 08:44:06;;;;;;;3.67;2.15;;;3.60;99.90;;;;;;5055891;28;20209;-63
2023/03/05 08:46:35;;;;;;;1.80;1.70;;;3.60;99.90;;;;;;5054870;28;20533;-64
2023/03/05 08:49:02;;;;;;;1.77;1.60;;;3.70;99.90;;;;;;5055490;28;20292;-64
2023/03/05 08:51:29;;;;;;;1.77;1.67;;;3.80;99.90;;;;;;5059991;28;20222;-63
2023/03/05 08:53:58;;;;;;;5.50;2.00;;;3.80;99.90;;;;;;5061056;28;20244;-63
2023/03/05 08:56:27;;;;;;;2.95;2.00;;;3.80;99.90;;;;;;5060083;28;20625;-63
2023/03/05 08:58:54;;;;;;;3.30;2.08;;;3.80;99.90;;;;;;5062266;28;20221;-63
2023/03/05 09:01:22;;;;;;;4.22;2.03;;;3.70;99.90;;;;;;5056830;28;20234;-63
2023/03/05 09:03:50;;;;;;;2.25;2.05;;;3.60;99.90;;;;;;5060275;28;20201;-64
2023/03/05 09:06:17;;;;;;;2.97;2.10;;;3.50;99.90;;;;;;5058362;28;20221;-63
2023/03/05 09:08:44;;;;;;;7.95;2.08;;;3.40;99.90;;;;;;5064899;28;20199;-63
2023/03/05 09:11:13;;;;;;;5.13;2.10;;;3.40;99.90;;;;;;5076442;28;20251;-63
2023/03/05 09:13:40;;;;;;;2.40;2.20;;;3.30;99.90;;;;;;5076385;28;20204;-63
2023/03/05 09:16:11;;;;;;;2.88;2.35;;;3.30;99.90;;;;;;5059049;28;20658;-62
2023/03/05 09:18:39;;;;;;;3.08;2.20;;;3.40;99.90;;;;;;5059727;28;20206;-62
2023/03/05 09:21:09;;;;;;;3.35;1.83;;;3.50;99.90;;;;;;5056820;28;20277;-63
2023/03/05 09:23:35;;;;;;;4.45;1.70;;;3.60;99.90;;;;;;5056549;28;20209;-62
2023/03/05 09:26:05;;;;;;;4.45;2.00;;;3.60;99.90;;;;;;5056879;28;20293;-63
2023/03/05 09:28:32;;;;;;;2.83;2.30;;;3.50;99.90;;;;;;5056651;28;20248;-64
2023/03/05 09:31:02;;;;;;;6.28;2.05;;;3.50;99.90;;;;;;5057459;28;20214;-63
2023/03/05 09:33:29;;;;;;;2.58;2.33;;;3.50;99.90;;;;;;5068672;28;20200;-64
2023/03/05 09:35:55;;;;;;;2.65;1.90;;;3.60;99.90;;;;;;5065494;28;20207;-63
2023/03/05 09:38:24;;;;;;;5.22;2.05;;;3.80;99.90;;;;;;5076643;28;20247;-63
2023/03/05 09:40:58;;;;;;;1.98;1.55;;;3.90;99.90;;;;;;5055751;28;20211;-63
2023/03/05 09:43:34;;;;;;;2.65;1.90;;;4.00;99.90;;;;;;5063102;28;20288;-64
2023/03/05 09:46:24;;;;;;;3.92;3.13;;;4.10;99.90;;;;;;5055296;28;20202;-62
2023/03/05 09:48:52;;;;;;;2.60;2.40;;;4.20;99.90;;;;;;5061661;28;20227;-63
2023/03/05 09:51:24;;;;;;;4.15;1.85;;;4.40;99.90;;;;;;5062906;28;20219;-62
2023/03/05 09:54:00;;;;;;;3.05;1.67;;;4.60;99.90;;;;;;5062911;28;20226;-63
2023/03/05 09:56:31;;;;;;;2.30;1.60;;;4.60;99.90;;;;;;5060142;28;20217;-63
2023/03/05 09:59:03;;;;;;;3.25;2.30;;;4.70;99.90;;;;;;5069372;28;20202;-62
2023/03/05 10:01:37;;;;;;;1.50;1.35;;;4.90;99.90;;;;;;5065003;28;20601;-63
2023/03/05 10:04:11;;;;;;;4.70;2.20;;;5.00;99.90;;;;;;5056827;28;20216;-63
2023/03/05 10:06:47;;;;;;;6.80;2.30;;;5.00;99.90;;;;;;5059502;28;20217;-63
2023/03/05 10:09:28;;;;;;;2.10;1.35;;;5.20;99.90;;;;;;5069941;28;20220;-63
2023/03/05 10:11:59;;;;;;;2.50;1.35;;;5.30;99.90;;;;;;5071478;28;20274;-62
2023/03/05 10:14:29;;;;;;;4.10;1.10;;;5.40;99.90;;;;;;5064394;28;20277;-61
2023/03/05 10:17:27;;;;;;;1.92;1.48;;;5.30;99.90;;;;;;5062398;28;20487;-62
2023/03/05 10:20:18;;;;;;;4.03;1.75;;;5.20;99.90;;;;;;5027541;28;20209;-63
2023/03/05 10:23:09;;;;;;;1.60;1.50;;;5.10;99.90;;;;;;5056418;28;20197;-63
2023/03/05 10:26:05;;;;;;;3.63;2.10;;;5.20;99.90;;;;;;5062040;28;20244;-61
2023/03/05 10:28:43;;;;;;;2.20;1.40;;;5.20;99.90;;;;;;5054695;28;20312;-63
2023/03/05 10:31:25;;;;;;;2.15;1.95;;;5.20;99.90;;;;;;5054669;28;20213;-63
2023/03/05 10:34:04;;;;;;;2.53;1.60;;;5.20;99.90;;;;;;5072368;28;20196;-63
2023/03/05 10:36:47;;;;;;;4.88;2.65;;;5.20;99.90;;;;;;5068596;28;20228;-62
2023/03/05 10:39:52;;;;;;;3.03;2.03;;;5.30;99.90;;;;;;5057712;28;20660;-63
2023/03/05 10:42:30;;;;;;;3.63;2.03;;;5.30;99.90;;;;;;5053572;28;20193;-63
2023/03/05 10:44:59;;;;;;;2.30;1.95;;;5.50;99.90;;;;;;5053995;28;20201;-63
2023/03/05 10:47:29;;;;;;;2.38;1.60;;;5.70;99.90;;;;;;5054734;28;20230;-63
2023/03/05 10:49:58;;;;;;;4.22;2.28;;;5.90;99.90;;;;;;5057785;28;20205;-63
2023/03/05 10:52:31;;;;;;;2.65;1.88;;;6.00;99.00;;;;;;5063624;28;20219;-63
2023/03/05 10:54:57;;;;;;;2.50;1.83;;;6.10;98.20;;;;;;5058519;28;20197;-63
2023/03/05 10:57:28;;;;;;;1.38;1.27;;;6.20;97.70;;;;;;5067767;28;20217;-62
2023/03/05 11:00:01;;;;;;;3.08;1.88;;;6.20;96.70;;;;;;5077517;22;20240;-62
2023/03/05 11:02:28;;;;;;;4.03;1.50;;;6.10;95.80;;;;;;5059335;28;20668;-59
2023/03/05 11:04:55;;;;;;;1.80;0.93;;;6.00;95.00;;;;;;5073508;28;20201;-60
2023/03/05 11:07:36;;;;;;;3.13;1.70;;;6.00;94.50;;;;;;5070403;28;20723;-60
2023/03/05 11:10:13;;;;;;;2.72;1.55;;;6.10;94.30;;;;;;5062913;28;20217;-61
2023/03/05 11:12:42;;;;;;;3.20;1.50;;;6.20;93.60;;;;;;5034226;28;20212;-60
2023/03/05 11:15:25;;;;;;;3.15;1.50;;;6.20;92.90;;;;;;5060287;28;20279;-61
2023/03/05 11:18:17;;;;;;;2.58;1.80;;;6.20;92.40;;;;;;5062840;28;20201;-61
2023/03/05 11:20:44;;;;;;;3.80;1.73;;;6.30;92.30;;;;;;5042863;28;20222;-61
2023/03/05 11:23:14;;;;;;;2.08;1.50;;;6.20;92.00;;;;;;5055461;28;20198;-61
2023/03/05 11:26:00;;;;;;;4.25;2.03;;;6.20;92.40;;;;;;5054611;28;20211;-60
2023/03/05 11:28:32;;;;;;;2.00;1.60;;;6.20;92.60;;;;;;5061606;28;20618;-60
2023/03/05 11:31:06;;;;;;;4.90;1.63;;;6.30;93.10;;;;;;5047020;28;20325;-61
2023/03/05 11:33:34;;;;;;;3.20;1.67;;;6.40;93.10;;;;;;5053785;28;20205;-60
2023/03/05 11:36:13;;;;;;;5.32;1.30;;;6.40;92.90;;;;;;5052731;28;20677;-61
2023/03/05 11:38:55;;;;;;;4.63;1.63;;;6.40;92.60;;;;;;5053833;28;20195;-61
2023/03/05 11:41:34;;;;;;;5.43;1.60;;;6.40;91.90;;;;;;5052887;28;20664;-62
2023/03/05 11:44:05;;;;;;;5.13;2.03;;;6.40;92.00;;;;;;5053850;28;20197;-60
2023/03/05 11:46:40;;;;;;;3.15;1.58;;;6.30;91.10;;;;;;5053234;28;20205;-60
2023/03/05 11:49:11;;;;;;;1.52;1.33;;;6.10;91.40;;;;;;5053951;28;20710;-61
2023/03/05 11:51:43;;;;;;;4.55;1.20;;;6.00;91.70;;;;;;5052593;28;20697;-59
2023/03/05 11:54:16;;;;;;;1.80;1.10;;;5.90;92.30;;;;;;5034129;28;20195;-60
2023/03/05 11:56:44;;;;;;;3.42;0.82;;;5.90;92.40;;;;;;5033356;28;20189;-60
2023/03/05 11:59:17;;;;;;;3.45;1.55;;;5.80;92.90;;;;;;5033333;28;20781;-60
2023/03/05 12:01:47;;;;;;;3.13;1.60;;;5.70;93.90;;;;;;5033666;28;20202;-60
2023/03/05 12:04:14;;;;;;;4.32;1.60;;;5.80;95.10;;;;;;5033209;28;20210;-61
2023/03/05 12:06:45;;;;;;;4.40;1.50;;;5.70;95.40;;;;;;5033518;28;20703;-60
2023/03/05 12:09:16;;;;;;;2.88;1.58;;;5.70;95.80;;;;;;5033512;28;20230;-60
2023/03/05 12:11:43;;;;;;;5.40;2.10;;;5.70;96.40;;;;;;5033418;28;20210;-61
2023/03/05 12:14:20;;;;;;;3.17;1.75;;;5.80;96.40;;;;;;5033025;28;20557;-60
2023/03/05 12:16:50;;;;;;;2.15;1.60;;;5.90;96.30;;;;;;5033129;28;20686;-60
2023/03/05 12:19:31;;;;;;;4.53;1.48;;;5.80;96.20;;;;;;5033631;28;20218;-61
2023/03/05 12:21:59;;;;;;;2.95;1.80;;;5.60;96.90;;;;;;5033460;28;20269;-61
2023/03/05 12:24:38;;;;;;;2.50;1.60;;;5.50;97.90;;;;;;5033574;28;20207;-60
2023/03/05 12:27:10;;;;;;;4.80;1.60;;;5.50;98.50;;;;;;5033499;28;20256;-60
2023/03/05 12:29:42;;;;;;;3.58;1.63;;;5.50;98.90;;;;;;5033000;28;20226;-59
2023/03/05 12:33:01;;;;;;;5.97;1.45;;;5.60;98.60;;;;;;5035313;28;20206;-61
2023/03/05 12:35:37;;;;;;;2.97;1.33;;;5.70;98.40;;;;;;5037498;28;20189;-61
2023/03/05 12:38:29;;;;;;;2.95;1.60;;;5.80;97.80;;;;;;5037373;28;20193;-61
2023/03/05 12:41:42;;;;;;;2.15;1.38;;;6.00;97.50;;;;;;5037207;28;20230;-62
2023/03/05 12:44:23;;;;;;;3.83;1.30;;;6.20;96.50;;;;;;5038140;28;20204;-60
2023/03/05 12:47:18;;;;;;;1.38;1.23;;;6.30;95.70;;;;;;5034441;28;20199;-61
2023/03/05 12:49:47;;;;;;;1.50;1.40;;;6.30;95.00;;;;;;5037142;28;20223;-61
2023/03/05 12:52:22;;;;;;;3.38;1.60;;;6.30;94.20;;;;;;5037082;28;20230;-61
2023/03/05 12:55:00;;;;;;;2.95;1.63;;;6.30;94.00;;;;;;5037435;28;20207;-61
2023/03/05 12:57:30;;;;;;;3.47;1.02;;;6.20;93.30;;;;;;5036999;28;20549;-61
2023/03/05 13:00:03;;;;;;;2.42;1.60;;;6.30;93.40;;;;;;5036602;28;20324;-60
2023/03/05 13:02:36;;;;;;;2.65;1.27;;;6.30;93.40;;;;;;5052706;28;20198;-62
2023/03/05 13:05:07;;;;;;;1.40;1.25;;;6.30;93.10;;;;;;5057146;28;20193;-60
2023/03/05 13:07:35;;;;;;;1.63;1.52;;;6.30;93.00;;;;;;5055507;28;20201;-61
2023/03/05 13:10:02;;;;;;;2.90;1.50;;;6.30;93.00;;;;;;5056034;28;20297;-63